createdAt,value
2019-03-29T00:04:00.970Z,42.23
2019-03-29T00:09:08.908Z,43.60
2019-03-29T00:14:15.844Z,38.77
2019-03-29T00:19:21.585Z,37.70
2019-03-29T00:24:27.153Z,38.63
2019-03-29T00:29:33.918Z,39.13
2019-03-29T00:34:39.519Z,39.17
2019-03-29T00:39:45.145Z,40.37
2019-03-29T00:44:50.761Z,40.23
2019-03-29T00:49:56.845Z,52.90
2019-03-29T00:55:02.363Z,41.93
2019-03-29T01:00:08.171Z,44.20
2019-03-29T01:05:13.826Z,43.23
2019-03-29T01:10:19.495Z,41.90
2019-03-29T01:15:25.260Z,41.20
2019-03-29T01:20:30.809Z,40.43
2019-03-29T01:25:37.549Z,42.57
2019-03-29T01:30:43.291Z,44.73
2019-03-29T01:35:48.900Z,37.63
2019-03-29T01:40:54.619Z,39.20
2019-03-29T01:46:00.233Z,41.80
2019-03-29T01:51:05.881Z,42.63
2019-03-29T01:56:11.548Z,42.83
2019-03-29T02:01:17.205Z,42.97
2019-03-29T02:06:22.747Z,42.40
2019-03-29T02:11:28.249Z,43.57
2019-03-29T02:16:34.234Z,47.67
2019-03-29T02:21:40.297Z,37.60
2019-03-29T02:26:45.803Z,43.60
2019-03-29T02:31:51.701Z,46.93
2019-03-29T02:36:57.462Z,42.07
2019-03-29T02:42:02.935Z,42.43
2019-03-29T02:47:08.448Z,39.47
2019-03-29T02:52:14.307Z,35.63
2019-03-29T02:57:20.112Z,37.83
2019-03-29T03:02:26.511Z,40.97
2019-03-29T03:07:32.380Z,44.93
2019-03-29T03:12:38.482Z,44.73
2019-03-29T03:17:43.945Z,48.67
2019-03-29T03:22:49.915Z,42.33
2019-03-29T03:27:55.647Z,42.23
2019-03-29T03:33:01.266Z,43.30
2019-03-29T03:38:06.915Z,43.63
2019-03-29T03:43:12.554Z,50.80
2019-03-29T03:48:18.744Z,54.60
2019-03-29T03:53:24.485Z,51.73
2019-03-29T03:58:30.832Z,47.90
2019-03-29T04:03:39.361Z,48.13
2019-03-29T04:08:45.282Z,50.13
2019-03-29T04:13:51.266Z,49.03
2019-03-29T04:18:57.330Z,54.93
2019-03-29T04:24:02.933Z,46.90
2019-03-29T04:29:08.930Z,44.13
2019-03-29T04:34:14.482Z,43.57
2019-03-29T04:39:20.095Z,47.23
2019-03-29T04:44:25.637Z,44.77
2019-03-29T04:49:31.278Z,39.90
2019-03-29T04:54:37.309Z,44.03
2019-03-29T04:59:42.871Z,43.13
2019-03-29T05:04:48.377Z,51.33
2019-03-29T05:09:54.293Z,43.07
2019-03-29T05:14:59.871Z,43.17
2019-03-29T05:20:05.897Z,45.97
2019-03-29T05:25:11.519Z,44.23
2019-03-29T05:30:17.287Z,48.03
2019-03-29T05:35:23.498Z,46.60
2019-03-29T05:40:34.707Z,45.90
2019-03-29T05:45:36.289Z,48.93
2019-03-29T05:50:41.775Z,46.00
2019-03-29T05:55:48.449Z,49.57
2019-03-29T06:00:55.108Z,50.40
2019-03-29T06:06:00.817Z,44.33
2019-03-29T06:11:06.674Z,44.37
2019-03-29T06:16:12.897Z,47.03
2019-03-29T06:21:18.822Z,47.60
2019-03-29T06:26:25.129Z,47.83
2019-03-29T06:31:31.833Z,47.13
2019-03-29T06:36:37.495Z,51.67
2019-03-29T06:41:43.227Z,55.03
2019-03-29T06:46:49.223Z,51.73
2019-03-29T06:51:54.896Z,50.30
2019-03-29T06:57:00.991Z,49.83
2019-03-29T07:02:06.656Z,48.33
2019-03-29T07:07:12.293Z,48.37
2019-03-29T07:12:18.053Z,50.23
2019-03-29T07:17:26.855Z,50.37
2019-03-29T07:22:34.779Z,48.73
2019-03-29T07:27:46.765Z,43.47
2019-03-29T07:32:53.565Z,40.50
2019-03-29T07:37:59.269Z,46.17
2019-03-29T07:43:30.225Z,44.40
2019-03-29T07:48:40.402Z,45.40
2019-03-29T07:53:52.531Z,39.43
2019-03-29T07:59:08.380Z,40.57
2019-03-29T08:04:14.055Z,37.87
2019-03-29T08:09:22.735Z,35.47
2019-03-29T08:14:27.501Z,36.83
2019-03-29T08:19:33.163Z,39.40
2019-03-29T08:24:39.307Z,36.60
2019-03-29T08:29:45.350Z,39.57
2019-03-29T08:34:50.969Z,40.10
2019-03-29T08:39:56.750Z,44.47
2019-03-29T08:45:02.551Z,34.23
2019-03-29T08:50:12.082Z,35.33
2019-03-29T08:55:18.002Z,33.13
2019-03-29T09:00:33.459Z,37.83
2019-03-29T09:05:40.209Z,32.20
2019-03-29T09:11:11.699Z,28.57
2019-03-29T09:16:17.540Z,29.17
2019-03-29T09:21:23.659Z,30.80
2019-03-29T09:26:31.698Z,27.33
2019-03-29T09:31:37.346Z,25.40
2019-03-29T09:36:47.365Z,24.63
2019-03-29T09:42:05.328Z,24.23
2019-03-29T09:47:16.209Z,23.17
2019-03-29T09:52:24.899Z,22.00
2019-03-29T09:57:37.335Z,19.30
2019-03-29T10:02:41.692Z,14.93
2019-03-29T10:07:50.675Z,15.30
2019-03-29T10:13:21.021Z,17.30
2019-03-29T10:18:27.913Z,15.80
2019-03-29T10:23:33.857Z,15.43
2019-03-29T10:28:39.585Z,15.93
2019-03-29T10:33:49.069Z,15.73
2019-03-29T10:38:57.234Z,16.17
2019-03-29T10:44:04.232Z,18.50
2019-03-29T10:49:11.223Z,17.37
2019-03-29T10:54:17.509Z,16.97
2019-03-29T10:59:27.577Z,22.27
2019-03-29T11:04:32.157Z,18.53
2019-03-29T11:09:40.182Z,17.53
2019-03-29T11:15:16.131Z,16.23
2019-03-29T11:20:22.212Z,16.53
2019-03-29T11:25:29.699Z,18.73
2019-03-29T11:30:42.111Z,19.13
2019-03-29T11:35:43.980Z,19.00
2019-03-29T11:40:55.303Z,22.13
2019-03-29T11:46:01.896Z,19.67
2019-03-29T11:51:18.673Z,21.33
2019-03-29T11:56:47.520Z,21.70
2019-03-29T12:02:31.397Z,22.40
2019-03-29T12:07:34.579Z,20.83
2019-03-29T12:12:40.357Z,20.03
2019-03-29T12:17:49.078Z,20.80
2019-03-29T12:22:56.520Z,23.77
2019-03-29T12:28:02.637Z,21.30
2019-03-29T12:33:08.450Z,19.03
2019-03-29T12:38:17.750Z,18.98
2019-03-29T12:43:26.480Z,21.07
2019-03-29T12:48:32.615Z,20.30
2019-03-29T12:54:02.183Z,17.50
2019-03-29T14:15:54.899Z,14.20
2019-03-29T14:21:00.880Z,14.13
2019-03-29T14:26:11.550Z,14.95
2019-03-29T14:31:21.047Z,16.17
2019-03-29T14:36:29.855Z,22.32
2019-03-29T14:41:39.073Z,16.05
2019-03-29T14:46:59.494Z,18.75
2019-03-29T14:52:06.956Z,19.25
2019-03-29T14:57:21.875Z,17.55
2019-03-29T15:02:27.514Z,15.63
2019-03-29T15:07:33.824Z,19.10
2019-03-29T15:12:40.690Z,18.53
2019-03-29T15:17:46.571Z,19.30
2019-03-29T15:22:59.221Z,17.07
2019-03-29T15:28:19.967Z,15.83
2019-03-29T15:34:07.362Z,14.37
2019-03-29T15:39:45.444Z,15.40
2019-03-29T15:44:52.766Z,14.67
2019-03-29T15:49:59.898Z,14.10
2019-03-29T15:55:12.645Z,14.30
2019-03-29T16:00:25.774Z,16.63
2019-03-29T16:05:43.122Z,16.53
2019-03-29T16:10:54.912Z,20.27
2019-03-29T16:16:02.120Z,17.17
2019-03-29T16:21:16.701Z,18.13
2019-03-29T16:26:26.429Z,19.20
2019-03-29T16:31:35.977Z,15.50
2019-03-29T16:36:42.708Z,17.47
2019-03-29T16:41:59.627Z,16.83
2019-03-29T16:47:07.158Z,16.70
2019-03-29T16:52:12.865Z,17.00
2019-03-29T16:57:39.159Z,15.20
2019-03-29T17:02:44.901Z,15.20
2019-03-29T17:07:50.945Z,17.27
2019-03-29T17:12:56.644Z,16.03
2019-03-29T17:18:29.460Z,17.27
2019-03-29T17:23:45.652Z,20.50
2019-03-29T17:28:53.314Z,20.17
2019-03-29T17:34:00.270Z,20.43
2019-03-29T17:39:08.270Z,19.00
2019-03-29T17:44:14.184Z,18.17
2019-03-29T17:49:25.750Z,17.40
2019-03-29T17:54:46.752Z,18.53
2019-03-29T17:59:59.727Z,19.20
2019-03-29T18:05:05.889Z,17.53
2019-03-29T18:10:11.596Z,18.37
2019-03-29T18:15:31.842Z,18.53
2019-03-29T18:20:38.066Z,19.90
2019-03-29T18:25:44.573Z,20.00
2019-03-29T18:30:50.449Z,18.10
2019-03-29T18:36:00.888Z,17.33
2019-03-29T18:41:11.167Z,19.17
2019-03-29T18:46:21.779Z,19.03
2019-03-29T18:51:31.253Z,19.73
2019-03-29T18:56:40.753Z,20.07
2019-03-29T19:01:52.748Z,20.50
2019-03-29T19:07:00.173Z,22.73
2019-03-29T19:12:08.556Z,19.13
2019-03-29T19:17:36.132Z,23.57
2019-03-29T19:23:00.065Z,21.70
2019-03-29T19:34:08.286Z,20.90
2019-03-29T19:39:25.704Z,21.30
2019-03-29T19:44:37.226Z,21.30
2019-03-29T19:49:55.443Z,20.90
2019-03-29T19:55:03.728Z,21.93
2019-03-29T20:00:11.997Z,22.30
2019-03-29T20:05:28.084Z,22.40
2019-03-29T20:16:25.243Z,22.90
2019-03-29T20:21:32.464Z,22.93
2019-03-29T20:26:38.384Z,24.33
2019-03-29T20:31:44.734Z,26.30
2019-03-29T20:36:50.464Z,27.63
2019-03-29T20:41:56.058Z,30.60
2019-03-29T20:47:01.637Z,30.87
2019-03-29T20:52:07.325Z,29.97
2019-03-29T20:57:13.175Z,32.03
2019-03-29T21:02:18.914Z,30.87
2019-03-29T21:07:24.484Z,31.40
2019-03-29T21:12:30.172Z,30.83
2019-03-29T21:17:36.512Z,29.27
2019-03-29T21:22:42.789Z,32.07
2019-03-29T21:27:48.597Z,34.37
2019-03-29T21:32:54.532Z,36.13
2019-03-29T21:38:00.180Z,35.20
2019-03-29T21:43:05.994Z,35.50
2019-03-29T21:48:27.926Z,32.53
2019-03-29T21:53:19.312Z,34.77
2019-03-29T21:58:24.902Z,35.17
2019-03-29T22:03:31.008Z,35.17
2019-03-29T22:08:36.577Z,33.47
2019-03-29T22:13:42.190Z,37.87
2019-03-29T22:18:52.866Z,36.10
2019-03-29T22:23:58.786Z,36.33
2019-03-29T22:29:04.399Z,36.20
2019-03-29T22:34:10.092Z,34.80
2019-03-29T22:39:15.641Z,33.63
2019-03-29T22:44:21.768Z,30.30
2019-03-29T22:49:27.424Z,31.83
2019-03-29T22:54:33.038Z,29.30
2019-03-29T22:59:40.014Z,33.33
2019-03-29T23:04:45.988Z,37.90
2019-03-29T23:09:51.654Z,37.03
2019-03-29T23:14:57.222Z,38.63
2019-03-29T23:20:02.814Z,39.30
2019-03-29T23:25:08.834Z,35.50
2019-03-29T23:30:15.762Z,34.83
2019-03-29T23:35:27.686Z,35.37
2019-03-29T23:40:33.220Z,35.60
2019-03-29T23:45:38.887Z,37.93
2019-03-29T23:50:44.471Z,34.63
2019-03-29T23:55:50.272Z,33.07
